Time;durP1;ratioP1;P1;durP2;ratioP2;P2;SDS_P1;SDS_P2;PMS_P1;PMS_P2;Temp;Humidity;BMP_temperature;BMP_pressure;BME280_temperature;BME280_humidity;BME280_pressure;Samples;Min_cycle;Max_cycle;Signal;HPM_P1;HPM_P2
2021/10/29 00:01:13;;;;;;;40.38;26.00;;;8.40;99.90;;;;;;5029721;28;20124;-67
2021/10/29 00:03:39;;;;;;;40.13;24.30;;;8.40;99.90;;;;;;5032090;28;20450;-67
2021/10/29 00:06:05;;;;;;;39.88;24.33;;;8.40;99.90;;;;;;5031600;28;20026;-66
2021/10/29 00:08:31;;;;;;;37.55;23.90;;;8.40;99.90;;;;;;5030821;28;20111;-66
2021/10/29 00:10:57;;;;;;;37.17;23.13;;;8.40;99.90;;;;;;5031661;28;20057;-66
2021/10/29 00:13:22;;;;;;;44.08;25.38;;;8.50;99.90;;;;;;5030914;28;20061;-66
2021/10/29 00:15:48;;;;;;;39.83;24.33;;;8.50;99.90;;;;;;5031635;28;20040;-67
2021/10/29 00:18:14;;;;;;;38.95;24.55;;;8.40;99.90;;;;;;5030456;28;20021;-68
2021/10/29 00:20:39;;;;;;;41.90;26.15;;;8.30;99.90;;;;;;5030956;28;20033;-67
2021/10/29 00:23:05;;;;;;;44.30;25.50;;;8.30;99.90;;;;;;5031214;28;20156;-67
2021/10/29 00:25:31;;;;;;;37.63;24.83;;;8.40;99.90;;;;;;5028973;28;20187;-66
2021/10/29 00:27:57;;;;;;;44.78;25.70;;;8.40;99.90;;;;;;5030738;28;20049;-66
2021/10/29 00:30:22;;;;;;;41.17;24.45;;;8.30;99.90;;;;;;5030484;28;20036;-66
2021/10/29 00:32:48;;;;;;;43.38;26.13;;;8.30;99.90;;;;;;5031353;28;20031;-65
2021/10/29 00:35:14;;;;;;;39.70;23.50;;;8.30;99.90;;;;;;5030262;28;20465;-72
2021/10/29 00:37:40;;;;;;;49.67;27.77;;;8.20;99.90;;;;;;5031494;28;20121;-66
2021/10/29 00:40:09;;;;;;;38.75;24.83;;;8.20;99.90;;;;;;5031097;28;20052;-67
2021/10/29 00:42:35;;;;;;;44.35;25.17;;;8.30;99.90;;;;;;5030585;28;20034;-67
2021/10/29 00:45:01;;;;;;;37.65;23.95;;;8.30;99.90;;;;;;5031479;28;20036;-68
2021/10/29 00:47:27;;;;;;;34.45;22.90;;;8.30;99.90;;;;;;5029306;28;20083;-66
2021/10/29 00:49:52;;;;;;;41.22;25.60;;;8.30;99.90;;;;;;5031268;28;20029;-66
2021/10/29 00:52:18;;;;;;;36.65;23.58;;;8.30;99.90;;;;;;5030613;28;20087;-67
2021/10/29 00:54:44;;;;;;;44.38;25.55;;;8.40;99.90;;;;;;5030773;28;20034;-67
2021/10/29 00:57:09;;;;;;;38.80;23.98;;;8.30;99.90;;;;;;5029467;28;20463;-67
2021/10/29 00:59:35;;;;;;;38.53;23.48;;;8.30;99.90;;;;;;5029108;28;20029;-67
2021/10/29 01:02:01;;;;;;;39.70;23.75;;;8.20;99.90;;;;;;5030951;28;20060;-66
2021/10/29 01:04:27;;;;;;;44.95;23.60;;;8.10;99.90;;;;;;5030445;28;20052;-66
2021/10/29 01:06:53;;;;;;;41.60;24.98;;;8.20;99.90;;;;;;5030702;28;20386;-66
2021/10/29 01:09:19;;;;;;;57.08;25.83;;;8.20;99.90;;;;;;5028992;28;20523;-66
2021/10/29 01:11:44;;;;;;;39.65;23.15;;;8.20;99.90;;;;;;5013562;28;20030;-66
2021/10/29 01:14:10;;;;;;;36.08;22.58;;;8.30;99.90;;;;;;5038058;28;20371;-67
2021/10/29 01:16:36;;;;;;;37.50;23.20;;;8.30;99.90;;;;;;5039373;28;20065;-65
2021/10/29 01:19:03;;;;;;;38.55;24.13;;;8.30;99.90;;;;;;5029943;28;20095;-67
2021/10/29 01:21:29;;;;;;;38.03;22.83;;;8.30;99.90;;;;;;5029366;28;20044;-67
2021/10/29 01:23:54;;;;;;;36.45;23.20;;;8.20;99.90;;;;;;5029269;28;20124;-67
2021/10/29 01:26:20;;;;;;;37.85;24.05;;;8.10;99.90;;;;;;5030359;28;20345;-67
2021/10/29 01:28:46;;;;;;;36.40;22.67;;;8.20;99.90;;;;;;5030923;28;20129;-66
2021/10/29 01:31:14;;;;;;;35.67;22.23;;;8.20;99.90;;;;;;5032112;28;20524;-66
2021/10/29 01:33:40;;;;;;;38.90;23.88;;;8.10;99.90;;;;;;5032284;28;20029;-65
2021/10/29 01:36:07;;;;;;;35.17;21.98;;;8.20;99.90;;;;;;5032498;28;20025;-66
2021/10/29 01:38:38;;;;;;;36.10;22.60;;;8.20;99.90;;;;;;5033425;28;20028;-67
2021/10/29 01:41:04;;;;;;;;;;;8.00;99.90;;;;;;5034565;28;20463;-65
2021/10/29 01:43:37;;;;;;;36.50;22.42;;;7.90;99.90;;;;;;5033460;28;19920;-66
2021/10/29 01:46:02;;;;;;;40.13;22.58;;;8.00;99.90;;;;;;5034268;28;20025;-66
2021/10/29 01:48:28;;;;;;;39.15;23.65;;;8.20;99.90;;;;;;5032053;28;20482;-66
2021/10/29 01:50:54;;;;;;;39.45;23.38;;;8.10;99.90;;;;;;5033881;28;20033;-66
2021/10/29 01:53:21;;;;;;;37.97;23.70;;;8.10;99.90;;;;;;5032814;28;20025;-67
2021/10/29 01:55:47;;;;;;;38.88;23.17;;;8.00;99.90;;;;;;5033641;28;20116;-66
2021/10/29 01:58:13;;;;;;;35.13;23.58;;;7.90;99.90;;;;;;5033414;28;20117;-66
2021/10/29 02:00:39;;;;;;;37.78;23.73;;;7.90;99.90;;;;;;5032704;28;20029;-65
2021/10/29 02:03:05;;;;;;;38.58;23.40;;;7.90;99.90;;;;;;5033269;28;20040;-66
2021/10/29 02:05:30;;;;;;;39.50;23.70;;;7.80;99.90;;;;;;5032646;28;20029;-66
2021/10/29 02:07:56;;;;;;;42.25;24.17;;;7.80;99.90;;;;;;5033211;28;20060;-65
2021/10/29 02:10:22;;;;;;;40.55;24.05;;;7.80;99.90;;;;;;5031438;28;20573;-65
2021/10/29 02:12:47;;;;;;;40.38;24.40;;;7.60;99.90;;;;;;5031866;28;20083;-66
2021/10/29 02:15:13;;;;;;;40.75;23.70;;;7.60;99.90;;;;;;5031686;28;20033;-66
2021/10/29 02:17:38;;;;;;;40.58;23.25;;;7.70;99.90;;;;;;5032651;28;20429;-66
2021/10/29 02:20:05;;;;;;;44.33;26.05;;;7.60;99.90;;;;;;5031684;28;20053;-65
2021/10/29 02:22:31;;;;;;;42.10;23.20;;;7.70;99.90;;;;;;5032198;28;20483;-65
2021/10/29 02:24:57;;;;;;;44.35;26.30;;;7.70;99.90;;;;;;5031688;28;20116;-66
2021/10/29 02:27:22;;;;;;;44.78;23.75;;;7.70;99.90;;;;;;5031904;28;20108;-66
2021/10/29 02:29:48;;;;;;;50.40;26.10;;;7.60;99.90;;;;;;5033137;28;20091;-65
2021/10/29 02:32:14;;;;;;;57.97;25.25;;;7.40;99.90;;;;;;5031751;28;20116;-65
2021/10/29 02:34:40;;;;;;;53.03;25.17;;;7.50;99.90;;;;;;5032227;28;20375;-65
2021/10/29 02:37:05;;;;;;;55.45;27.42;;;7.40;99.90;;;;;;5031640;28;20075;-65
2021/10/29 02:39:31;;;;;;;49.22;26.30;;;7.40;99.90;;;;;;5032303;28;20446;-65
2021/10/29 02:42:01;;;;;;;52.25;26.48;;;7.40;99.90;;;;;;5032089;28;20032;-65
2021/10/29 02:44:27;;;;;;;45.85;25.30;;;7.40;99.90;;;;;;5032023;28;20467;-66
2021/10/29 02:46:53;;;;;;;54.60;27.23;;;7.50;99.90;;;;;;5031660;28;20160;-65
2021/10/29 02:49:19;;;;;;;53.72;26.60;;;7.70;99.90;;;;;;5031733;28;20074;-69
2021/10/29 02:51:44;;;;;;;52.47;27.10;;;7.60;99.90;;;;;;5032059;28;20124;-66
2021/10/29 02:54:10;;;;;;;57.42;26.40;;;7.70;99.90;;;;;;5031241;28;20032;-66
2021/10/29 02:56:36;;;;;;;47.15;25.77;;;7.60;99.90;;;;;;5035470;28;20473;-66
2021/10/29 02:59:02;;;;;;;45.63;25.27;;;7.60;99.90;;;;;;5035570;28;20026;-65
2021/10/29 03:01:27;;;;;;;50.17;27.50;;;7.70;99.90;;;;;;5031903;28;20364;-66
2021/10/29 03:03:53;;;;;;;51.45;27.10;;;7.70;99.90;;;;;;5032052;28;20479;-65
2021/10/29 03:06:19;;;;;;;50.58;27.23;;;7.80;99.90;;;;;;5030922;28;20025;-66
2021/10/29 03:08:44;;;;;;;50.22;27.98;;;7.80;99.90;;;;;;5031451;28;20022;-65
2021/10/29 03:11:10;;;;;;;47.72;25.58;;;7.80;99.90;;;;;;5032411;28;20034;-65
2021/10/29 03:13:36;;;;;;;55.30;28.35;;;7.80;99.90;;;;;;5031450;28;20029;-65
2021/10/29 03:16:01;;;;;;;46.60;25.45;;;7.90;99.90;;;;;;5032327;28;20032;-66
2021/10/29 03:18:27;;;;;;;49.95;28.15;;;8.00;99.90;;;;;;5031751;28;20470;-66
2021/10/29 03:20:53;;;;;;;45.95;26.30;;;8.00;99.90;;;;;;5032279;28;20038;-66
2021/10/29 03:23:19;;;;;;;48.85;27.02;;;8.00;99.90;;;;;;5032336;28;20459;-65
2021/10/29 03:25:45;;;;;;;47.00;25.85;;;8.10;99.90;;;;;;5030029;28;20540;-66
2021/10/29 03:28:12;;;;;;;50.30;28.88;;;8.00;99.90;;;;;;5032198;28;20054;-66
2021/10/29 03:30:38;;;;;;;50.85;25.73;;;8.00;99.90;;;;;;5029801;28;20065;-66
2021/10/29 03:33:04;;;;;;;50.40;26.90;;;8.00;99.90;;;;;;5032004;28;20068;-66
2021/10/29 03:35:29;;;;;;;49.25;27.50;;;8.00;99.90;;;;;;5031489;28;20033;-66
2021/10/29 03:40:42;;;;;;;46.85;26.15;;;8.20;99.90;;;;;;5031430;28;20033;-67
2021/10/29 03:43:18;;;;;;;54.42;27.25;;;8.20;99.90;;;;;;5030527;28;20124;-67
2021/10/29 03:45:50;;;;;;;53.33;28.58;;;8.00;99.90;;;;;;5030655;28;20026;-66
2021/10/29 03:48:18;;;;;;;55.22;28.20;;;8.00;99.90;;;;;;5042663;28;20032;-67
2021/10/29 03:56:21;;;;;;;53.50;28.65;;;8.10;99.90;;;;;;5048638;28;20116;-67
2021/10/29 03:58:50;;;;;;;52.95;27.75;;;8.00;99.90;;;;;;5049060;28;20631;-67
2021/10/29 04:01:16;;;;;;;57.38;28.88;;;8.00;99.90;;;;;;5051087;28;20087;-67
2021/10/29 04:03:43;;;;;;;52.88;27.73;;;8.00;99.90;;;;;;5050680;28;20041;-66
2021/10/29 04:06:09;;;;;;;54.63;28.58;;;8.10;99.90;;;;;;5051039;28;20029;-67
2021/10/29 04:08:34;;;;;;;54.17;28.45;;;8.00;99.90;;;;;;5031253;28;20375;-67
2021/10/29 04:11:00;;;;;;;54.42;28.85;;;8.10;99.90;;;;;;5031008;28;20434;-66
2021/10/29 04:13:28;;;;;;;56.58;29.27;;;8.10;99.90;;;;;;5031182;28;20025;-70
2021/10/29 04:15:54;;;;;;;55.58;26.20;;;8.10;99.90;;;;;;5029460;28;20467;-68
2021/10/29 04:18:21;;;;;;;56.13;28.73;;;8.20;99.90;;;;;;5030886;28;20032;-66
2021/10/29 04:20:47;;;;;;;49.53;28.13;;;8.20;99.90;;;;;;5028930;28;20041;-66
2021/10/29 04:23:12;;;;;;;47.15;26.85;;;8.10;99.90;;;;;;5030820;28;20034;-66
2021/10/29 04:25:38;;;;;;;51.28;26.17;;;8.30;99.90;;;;;;5028635;28;20053;-66
2021/10/29 04:28:11;;;;;;;50.92;25.85;;;8.20;99.90;;;;;;5030613;28;20052;-66
2021/10/29 04:30:37;;;;;;;48.05;26.30;;;8.20;99.90;;;;;;5028438;28;20034;-67
2021/10/29 04:33:07;;;;;;;58.17;28.70;;;8.20;99.90;;;;;;5031511;28;20107;-66
2021/10/29 04:35:38;;;;;;;53.83;25.80;;;8.30;99.90;;;;;;5049826;28;20028;-67
2021/10/29 04:38:08;;;;;;;52.58;27.83;;;8.40;99.90;;;;;;5049483;28;20029;-67
2021/10/29 04:40:35;;;;;;;50.38;27.73;;;8.40;99.90;;;;;;5049562;28;20029;-67
2021/10/29 04:43:05;;;;;;;54.95;28.67;;;8.40;99.90;;;;;;5050665;28;20039;-66
2021/10/29 04:45:31;;;;;;;53.67;28.92;;;8.40;99.90;;;;;;5049875;28;20028;-73
2021/10/29 04:47:58;;;;;;;50.95;27.70;;;8.40;99.90;;;;;;5049218;28;20025;-67
2021/10/29 04:50:24;;;;;;;48.72;27.23;;;8.40;99.90;;;;;;5050422;28;20044;-67
2021/10/29 04:52:50;;;;;;;71.65;31.25;;;8.20;99.90;;;;;;5049900;28;20021;-67
2021/10/29 04:55:16;;;;;;;55.50;29.95;;;8.20;99.90;;;;;;5050336;28;20389;-67
2021/10/29 04:57:41;;;;;;;60.75;30.58;;;8.20;99.90;;;;;;5049978;28;20040;-67
2021/10/29 05:00:09;;;;;;;55.47;29.80;;;8.30;99.90;;;;;;5048666;28;20104;-67
2021/10/29 05:02:35;;;;;;;58.08;29.63;;;8.40;99.90;;;;;;5048004;28;20068;-69
2021/10/29 05:05:03;;;;;;;57.20;29.65;;;8.40;99.90;;;;;;5050568;28;20028;-68
2021/10/29 05:07:29;;;;;;;49.88;27.38;;;8.30;99.90;;;;;;5053850;28;20086;-68
2021/10/29 05:09:55;;;;;;;53.17;28.15;;;8.40;99.90;;;;;;5054070;28;20462;-68
2021/10/29 05:12:22;;;;;;;50.70;29.00;;;8.40;99.90;;;;;;5054013;28;20029;-68
2021/10/29 05:14:47;;;;;;;54.85;30.85;;;8.30;99.90;;;;;;5053429;28;20024;-69
2021/10/29 05:17:13;;;;;;;53.22;27.35;;;8.30;99.90;;;;;;5053747;28;20398;-69
2021/10/29 05:19:39;;;;;;;54.08;28.77;;;8.30;99.90;;;;;;5052102;28;20378;-68
2021/10/29 05:22:05;;;;;;;44.08;24.77;;;8.40;99.90;;;;;;5054236;28;20055;-67
2021/10/29 05:24:31;;;;;;;50.60;29.35;;;8.40;99.90;;;;;;5052312;28;20128;-73
2021/10/29 05:26:57;;;;;;;51.15;27.90;;;8.30;99.90;;;;;;5051569;28;20462;-68
2021/10/29 05:29:23;;;;;;;48.33;25.77;;;8.20;99.90;;;;;;5053347;28;20218;-68
2021/10/29 05:31:50;;;;;;;46.90;26.73;;;8.30;99.90;;;;;;5052819;28;20032;-68
2021/10/29 05:34:16;;;;;;;44.33;25.95;;;8.30;99.90;;;;;;5052351;28;20025;-68
2021/10/29 05:36:43;;;;;;;44.60;26.17;;;8.40;99.90;;;;;;5052873;28;20053;-68
2021/10/29 05:39:09;;;;;;;43.72;26.48;;;8.40;99.90;;;;;;5052432;28;20083;-69
2021/10/29 05:41:36;;;;;;;45.53;26.38;;;8.40;99.90;;;;;;5052459;28;20091;-75
2021/10/29 05:44:02;;;;;;;42.88;25.67;;;8.40;99.90;;;;;;5053116;28;20029;-68
2021/10/29 05:46:31;;;;;;;41.72;23.50;;;8.40;99.90;;;;;;5052851;28;20035;-68
2021/10/29 05:48:57;;;;;;;41.97;25.40;;;8.40;99.90;;;;;;5052235;28;20031;-68
2021/10/29 05:51:23;;;;;;;46.13;25.73;;;8.30;99.90;;;;;;5052840;28;20510;-68
2021/10/29 05:56:15;;;;;;;59.67;26.95;;;8.50;99.90;;;;;;5052377;28;20054;-66
2021/10/29 05:58:41;;;;;;;50.47;24.90;;;8.40;99.90;;;;;;5046738;28;20083;-68
2021/10/29 06:01:07;;;;;;;36.63;22.73;;;9.50;99.90;;;;;;5052857;28;20036;-68
2021/10/29 06:03:33;;;;;;;26.90;17.67;;;10.30;99.90;;;;;;5052054;28;20364;-65
2021/10/29 06:05:59;;;;;;;29.02;17.65;;;10.30;99.90;;;;;;5052598;28;20048;-66
2021/10/29 06:08:25;;;;;;;30.27;18.40;;;11.00;99.90;;;;;;5050580;28;20047;-65
2021/10/29 06:10:51;;;;;;;22.55;16.20;;;11.60;99.90;;;;;;5052353;28;20028;-65
2021/10/29 06:13:17;;;;;;;38.00;19.40;;;12.00;99.90;;;;;;5052957;28;20109;-64
2021/10/29 06:15:44;;;;;;;36.60;22.23;;;11.70;99.90;;;;;;5052171;28;20190;-68
2021/10/29 06:18:12;;;;;;;34.80;21.40;;;11.00;99.90;;;;;;5051761;28;20020;-68
2021/10/29 06:20:38;;;;;;;32.67;21.83;;;9.60;99.90;;;;;;5049984;28;20032;-74
2021/10/29 06:23:06;;;;;;;37.15;22.65;;;9.30;99.90;;;;;;5050873;28;20069;-67
2021/10/29 06:25:40;;;;;;;40.40;23.02;;;9.10;99.90;;;;;;5050117;28;20551;-68
2021/10/29 06:30:37;;;;;;;39.75;23.38;;;9.00;99.90;;;;;;5051048;28;20506;-73
2021/10/29 06:33:05;;;;;;;77.32;36.75;;;8.90;99.90;;;;;;5046844;28;20094;-68
2021/10/29 06:35:31;;;;;;;43.08;26.15;;;9.10;99.90;;;;;;5032365;28;20040;-67
2021/10/29 06:38:00;;;;;;;41.13;24.25;;;9.30;99.90;;;;;;5042293;28;20038;-68
2021/10/29 06:40:28;;;;;;;36.80;22.85;;;9.10;99.90;;;;;;5049785;28;20071;-70
2021/10/29 06:42:58;;;;;;;36.40;23.10;;;8.90;99.90;;;;;;5044326;28;20462;-69
2021/10/29 06:45:47;;;;;;;36.67;22.92;;;8.90;99.90;;;;;;5048989;28;20143;-70
2021/10/29 06:48:35;;;;;;;41.20;24.15;;;8.80;99.90;;;;;;5031091;28;20032;-67
2021/10/29 06:59:22;;;;;;;43.63;26.13;;;8.60;99.90;;;;;;5037303;28;20048;-68
2021/10/29 07:40:02;;;;;;;41.35;25.50;;;8.80;99.90;;;;;;5049431;28;20509;-68
2021/10/29 07:42:34;;;;;;;37.33;22.90;;;8.70;99.90;;;;;;5050259;28;20044;-69
2021/10/29 07:44:59;;;;;;;;;;;8.80;99.90;;;;;;5051340;28;20029;-68
2021/10/29 07:47:25;;;;;;;40.65;23.83;;;8.90;99.90;;;;;;5049972;28;19950;-69
2021/10/29 07:49:51;;;;;;;36.95;23.20;;;8.80;99.90;;;;;;5049237;28;20036;-68
2021/10/29 07:52:16;;;;;;;38.03;22.05;;;8.90;99.90;;;;;;5049556;28;20120;-71
2021/10/29 07:54:45;;;;;;;42.15;23.52;;;8.90;99.90;;;;;;5050501;28;20037;-69
2021/10/29 07:57:13;;;;;;;39.17;23.90;;;9.10;99.90;;;;;;5050102;28;20140;-70
2021/10/29 07:59:39;;;;;;;37.20;22.95;;;8.70;99.90;;;;;;5045532;28;20103;-70
2021/10/29 08:02:05;;;;;;;40.63;24.45;;;8.70;99.90;;;;;;5047585;28;20025;-72
2021/10/29 08:04:31;;;;;;;40.35;24.33;;;8.80;99.90;;;;;;5049056;28;20116;-66
2021/10/29 08:06:56;;;;;;;43.10;24.77;;;9.20;99.90;;;;;;5048907;28;20025;-67
2021/10/29 08:09:26;;;;;;;40.15;23.63;;;8.90;99.90;;;;;;5049637;28;20075;-66
2021/10/29 08:11:52;;;;;;;39.22;22.98;;;8.90;99.90;;;;;;5050060;28;20109;-67
2021/10/29 08:14:19;;;;;;;39.20;24.75;;;8.70;99.90;;;;;;5050901;28;20116;-67
2021/10/29 08:16:45;;;;;;;44.47;25.45;;;8.60;99.90;;;;;;5046100;28;20029;-69
2021/10/29 08:19:11;;;;;;;40.42;25.98;;;8.80;99.90;;;;;;5033090;28;20036;-68
2021/10/29 08:21:36;;;;;;;44.33;22.92;;;8.70;99.90;;;;;;5030516;28;20140;-68
2021/10/29 08:24:02;;;;;;;38.08;23.92;;;8.70;99.90;;;;;;5042131;28;20024;-68
2021/10/29 08:26:28;;;;;;;40.40;24.33;;;8.60;99.90;;;;;;5050000;28;20021;-68
2021/10/29 08:28:53;;;;;;;39.92;24.58;;;8.60;99.90;;;;;;5048441;28;20052;-68
2021/10/29 08:31:19;;;;;;;56.70;25.02;;;8.70;99.90;;;;;;5050327;28;20082;-68
2021/10/29 08:33:45;;;;;;;44.13;22.27;;;8.70;99.90;;;;;;5049964;28;20044;-69
2021/10/29 08:36:12;;;;;;;36.15;23.55;;;8.90;99.90;;;;;;5049097;28;20078;-69
2021/10/29 08:38:40;;;;;;;38.60;22.50;;;8.90;99.90;;;;;;5047631;28;20460;-68
2021/10/29 08:41:05;;;;;;;26.98;13.40;;;9.10;99.90;;;;;;5051245;28;20540;-67
2021/10/29 08:43:31;;;;;;;28.70;18.05;;;9.50;99.90;;;;;;5052171;28;20124;-66
2021/10/29 08:45:57;;;;;;;25.55;15.07;;;11.60;99.90;;;;;;5047206;28;20091;-64
2021/10/29 08:48:26;;;;;;;30.83;19.23;;;12.50;99.90;;;;;;5053554;28;20139;-67
2021/10/29 08:50:52;;;;;;;29.20;19.38;;;12.40;99.90;;;;;;5052404;28;20041;-69
2021/10/29 08:53:18;;;;;;;43.47;23.00;;;10.90;99.90;;;;;;5050416;28;20029;-68
2021/10/29 08:55:44;;;;;;;31.17;21.35;;;10.60;99.90;;;;;;5039654;28;20036;-70
2021/10/29 08:58:11;;;;;;;37.10;21.92;;;10.30;99.90;;;;;;5034217;28;20387;-68
2021/10/29 09:00:41;;;;;;;31.67;20.75;;;9.90;99.90;;;;;;5045073;28;20036;-69
2021/10/29 09:03:20;;;;;;;31.65;19.95;;;9.70;99.90;;;;;;5052149;28;20025;-70
2021/10/29 09:06:15;;;;;;;32.80;20.75;;;9.40;99.90;;;;;;5052516;28;20025;-69
2021/10/29 09:34:01;;;;;;;29.27;17.23;;;9.60;99.90;;;;;;5033143;28;20037;-68
2021/10/29 09:36:32;;;;;;;30.02;17.80;;;9.50;99.90;;;;;;5048198;28;20029;-68
2021/10/29 09:39:06;;;;;;;28.45;17.30;;;9.40;99.90;;;;;;5045231;28;20118;-68
2021/10/29 09:41:34;;;;;;;28.00;17.67;;;9.50;99.90;;;;;;5049680;28;20041;-68
2021/10/29 09:44:05;;;;;;;28.00;17.88;;;9.50;99.90;;;;;;5052065;28;20029;-69
2021/10/29 09:46:43;;;;;;;30.00;19.42;;;9.40;99.90;;;;;;5051391;28;20440;-70
2021/10/29 09:49:12;;;;;;;30.80;16.17;;;9.40;99.90;;;;;;5052642;28;20033;-69
2021/10/29 09:51:50;;;;;;;27.52;16.42;;;9.60;99.90;;;;;;5052071;28;20094;-68
2021/10/29 09:54:31;;;;;;;25.90;17.38;;;9.70;99.90;;;;;;5052234;28;20028;-67
2021/10/29 09:56:57;;;;;;;28.02;16.90;;;9.80;99.90;;;;;;5045589;28;20033;-69
2021/10/29 09:59:23;;;;;;;32.83;18.40;;;10.00;99.90;;;;;;5052054;28;20040;-67
2021/10/29 10:01:52;;;;;;;29.02;17.50;;;9.90;99.90;;;;;;5051612;28;20087;-66
2021/10/29 10:04:19;;;;;;;21.40;16.08;;;10.00;99.90;;;;;;5051123;28;20032;-67
2021/10/29 10:06:45;;;;;;;27.60;17.80;;;10.30;99.90;;;;;;5050166;28;20721;-69
2021/10/29 10:09:11;;;;;;;25.65;17.50;;;10.50;99.90;;;;;;5047969;28;20036;-70
2021/10/29 10:11:39;;;;;;;30.77;17.30;;;10.40;99.90;;;;;;5052039;28;20124;-67
2021/10/29 10:14:06;;;;;;;36.47;20.08;;;10.60;99.90;;;;;;5049827;28;20021;-66
2021/10/29 10:16:33;;;;;;;26.38;18.00;;;10.60;99.90;;;;;;5048863;28;20072;-68
2021/10/29 10:18:59;;;;;;;23.88;16.65;;;10.80;99.90;;;;;;5043928;28;20033;-67
2021/10/29 10:21:28;;;;;;;25.65;17.90;;;10.80;99.90;;;;;;5051934;28;20470;-67
2021/10/29 10:23:57;;;;;;;24.35;17.20;;;11.00;99.90;;;;;;5051471;28;20033;-70
2021/10/29 10:48:21;;;;;;;22.10;16.23;;;10.90;99.90;;;;;;5051258;28;20536;-68
2021/10/29 10:50:50;;;;;;;45.92;20.15;;;11.10;99.90;;;;;;5048314;28;20028;-68
2021/10/29 10:53:23;;;;;;;25.95;16.55;;;11.50;99.90;;;;;;5050236;28;20029;-67
2021/10/29 10:56:16;;;;;;;24.30;17.90;;;11.80;99.90;;;;;;5049381;28;20025;-68
2021/10/29 10:59:14;;;;;;;24.77;16.27;;;12.10;99.90;;;;;;5051757;28;20036;-69
2021/10/29 11:04:35;;;;;;;20.00;15.75;;;12.90;99.90;;;;;;5050672;28;20125;-69
2021/10/29 11:10:10;;;;;;;24.55;16.48;;;13.40;99.90;;;;;;5028435;28;20034;-68
2021/10/29 11:12:42;;;;;;;26.55;15.70;;;13.30;99.90;;;;;;5029081;28;20434;-68
2021/10/29 11:15:20;;;;;;;23.27;15.38;;;14.00;99.90;;;;;;5040554;28;20099;-68
2021/10/29 11:17:56;;;;;;;23.77;14.65;;;14.70;99.90;;;;;;5050587;28;20041;-68
2021/10/29 11:20:51;;;;;;;19.02;14.48;;;15.40;99.90;;;;;;5049760;28;20136;-68
2021/10/29 11:23:22;;;;;;;22.92;15.82;;;15.90;99.90;;;;;;5051176;28;20025;-68
2021/10/29 11:26:18;;;;;;;24.27;14.60;;;16.10;99.90;;;;;;5050323;28;20033;-68
2021/10/29 11:28:52;;;;;;;18.58;12.98;;;16.60;99.90;;;;;;5039991;28;20100;-72
2021/10/29 11:31:21;;;;;;;17.20;12.60;;;16.80;99.90;;;;;;5033235;28;20028;-69
2021/10/29 11:33:53;;;;;;;17.20;12.27;;;16.60;99.90;;;;;;5048590;28;20028;-69
2021/10/29 11:36:20;;;;;;;;;;;16.90;99.90;;;;;;5051888;28;20021;-66
2021/10/29 11:38:48;;;;;;;17.17;12.90;;;17.50;99.90;;;;;;5050585;28;19934;-68
2021/10/29 11:41:34;;;;;;;18.80;12.75;;;17.20;99.90;;;;;;5051153;28;20143;-67
2021/10/29 11:44:13;;;;;;;16.30;10.52;;;16.60;99.90;;;;;;5050314;28;20047;-68
2021/10/29 11:46:41;;;;;;;15.02;11.40;;;17.10;99.90;;;;;;5049623;28;20090;-68
2021/10/29 11:49:21;;;;;;;12.60;11.07;;;17.30;99.90;;;;;;5050418;28;20029;-69
2021/10/29 11:51:47;;;;;;;17.90;10.98;;;18.10;99.90;;;;;;5043226;28;20126;-70
2021/10/29 11:54:23;;;;;;;20.73;10.75;;;18.70;99.60;;;;;;5038115;28;20029;-70
2021/10/29 12:07:48;;;;;;;11.80;10.07;;;18.90;97.60;;;;;;5044665;28;20490;-72
2021/10/29 12:10:20;;;;;;;11.80;9.77;;;18.70;97.90;;;;;;5047801;28;20131;-68
2021/10/29 12:12:49;;;;;;;13.77;9.75;;;18.60;97.80;;;;;;5048220;28;20029;-69
2021/10/29 12:15:18;;;;;;;15.98;10.40;;;18.50;97.70;;;;;;5050292;28;20102;-69
2021/10/29 12:18:09;;;;;;;10.68;8.57;;;18.30;97.80;;;;;;5049501;28;20029;-68
2021/10/29 12:20:40;;;;;;;10.38;9.18;;;18.80;98.40;;;;;;5049536;28;20097;-68
2021/10/29 12:23:16;;;;;;;;;;;18.70;97.70;;;;;;5050388;28;20048;-69
2021/10/29 12:28:19;;;;;;;18.85;9.73;;;18.40;97.70;;;;;;5049632;28;20118;-69
2021/10/29 13:03:21;;;;;;;13.55;8.02;;;18.10;96.90;;;;;;5050272;28;20094;-67
2021/10/29 13:05:58;;;;;;;7.65;6.85;;;18.60;95.70;;;;;;5050325;28;20109;-68
2021/10/29 13:08:26;;;;;;;9.68;7.20;;;18.90;96.70;;;;;;5049364;28;20493;-67
2021/10/29 13:10:58;;;;;;;12.82;8.43;;;19.20;95.10;;;;;;5042937;28;20052;-68
2021/10/29 13:16:04;;;;;;;11.43;6.97;;;18.40;95.80;;;;;;5042076;28;20093;-68
2021/10/29 13:18:43;;;;;;;15.18;8.18;;;17.70;97.20;;;;;;5047491;28;20531;-68
2021/10/29 13:34:42;;;;;;;9.20;7.55;;;18.10;97.10;;;;;;5042054;28;20134;-67
2021/10/29 13:37:17;;;;;;;8.45;7.55;;;17.40;98.10;;;;;;5050204;28;20120;-69
2021/10/29 13:51:01;;;;;;;10.68;7.15;;;16.60;99.40;;;;;;5032558;28;20048;-68
2021/10/29 13:59:53;;;;;;;12.67;7.90;;;17.00;99.40;;;;;;5050984;28;20068;-70
2021/10/29 14:24:33;;;;;;;10.60;7.32;;;18.70;97.10;;;;;;5048498;28;20074;-68
2021/10/29 14:35:01;;;;;;;10.32;6.82;;;18.40;97.00;;;;;;5051322;28;20029;-67
2021/10/29 14:37:37;;;;;;;16.13;10.23;;;17.60;98.30;;;;;;5051342;28;20029;-67
2021/10/29 14:42:37;;;;;;;9.65;8.00;;;18.10;97.90;;;;;;5051549;28;20135;-67
2021/10/29 15:04:02;;;;;;;18.50;14.85;;;17.00;99.60;;;;;;5030643;28;20045;-68
2021/10/29 15:44:07;;;;;;;25.63;19.33;;;14.40;99.90;;;;;;5030089;28;20021;-67
2021/10/29 15:52:15;;;;;;;28.08;20.33;;;14.20;99.90;;;;;;5028674;28;20131;-68
2021/10/29 15:54:52;;;;;;;30.10;19.23;;;13.90;99.90;;;;;;5029224;28;20083;-69
2021/10/29 15:57:28;;;;;;;32.78;21.25;;;13.60;99.90;;;;;;5028511;28;20082;-69
2021/10/29 16:18:39;;;;;;;26.48;19.52;;;12.60;99.90;;;;;;5028476;28;20127;-68
2021/10/29 16:21:05;;;;;;;25.55;18.42;;;12.50;99.90;;;;;;5027139;28;20033;-68
2021/10/29 16:23:31;;;;;;;28.00;18.70;;;12.40;99.90;;;;;;5027190;28;20067;-67
2021/10/29 16:28:30;;;;;;;32.70;23.20;;;12.40;99.90;;;;;;5028025;28;20053;-69
2021/10/29 16:30:56;;;;;;;34.58;23.27;;;12.30;99.90;;;;;;5028123;28;20078;-69
2021/10/29 16:33:35;;;;;;;32.42;20.10;;;12.10;99.90;;;;;;5027043;28;20034;-69
2021/10/29 16:36:02;;;;;;;37.22;22.75;;;12.00;99.90;;;;;;5026610;28;20129;-71
2021/10/29 16:38:28;;;;;;;34.58;21.90;;;12.00;99.90;;;;;;5026460;28;20029;-69
2021/10/29 16:40:54;;;;;;;36.25;21.85;;;12.10;99.90;;;;;;5026177;28;20048;-68
2021/10/29 16:43:22;;;;;;;39.05;21.55;;;12.20;99.90;;;;;;5027490;28;20030;-68
2021/10/29 16:45:48;;;;;;;52.35;26.80;;;12.20;99.90;;;;;;5026582;28;20026;-68
2021/10/29 16:48:16;;;;;;;34.10;21.30;;;12.20;99.90;;;;;;5027508;28;20060;-69
2021/10/29 16:50:43;;;;;;;38.42;24.05;;;12.10;99.90;;;;;;5026622;28;20109;-70
2021/10/29 16:53:09;;;;;;;46.80;25.33;;;12.00;99.90;;;;;;5027296;28;20029;-68
2021/10/29 16:55:36;;;;;;;30.55;20.70;;;12.10;99.90;;;;;;5026352;28;20181;-70
2021/10/29 16:58:03;;;;;;;26.38;19.05;;;12.00;99.90;;;;;;5028185;28;20351;-69
2021/10/29 17:00:28;;;;;;;38.58;26.85;;;11.90;99.90;;;;;;5026317;28;20171;-69
2021/10/29 17:02:54;;;;;;;38.45;24.02;;;12.00;99.90;;;;;;5029117;28;20459;-68
2021/10/29 17:05:20;;;;;;;29.48;19.98;;;12.00;99.90;;;;;;5029459;28;20064;-70
2021/10/29 17:07:46;;;;;;;26.40;18.13;;;11.90;99.90;;;;;;5031787;28;20040;-68
2021/10/29 17:10:14;;;;;;;27.42;18.83;;;11.80;99.90;;;;;;5029857;28;20492;-68
2021/10/29 17:12:41;;;;;;;25.10;17.17;;;11.80;99.90;;;;;;5029854;28;20092;-68
2021/10/29 17:15:12;;;;;;;23.38;16.92;;;11.80;99.90;;;;;;5028582;28;20116;-69
2021/10/29 17:17:38;;;;;;;22.35;14.80;;;11.80;99.90;;;;;;5029312;28;20021;-69
2021/10/29 17:20:07;;;;;;;21.70;16.23;;;11.50;99.90;;;;;;5028784;28;20083;-69
2021/10/29 17:22:33;;;;;;;20.90;15.00;;;11.40;99.90;;;;;;5030992;28;20037;-69
2021/10/29 17:24:59;;;;;;;24.58;15.43;;;11.30;99.90;;;;;;5031357;28;20470;-70
2021/10/29 17:27:25;;;;;;;25.67;16.80;;;11.30;99.90;;;;;;5029019;28;20356;-68
2021/10/29 17:29:50;;;;;;;25.83;15.98;;;11.30;99.90;;;;;;5030389;28;20057;-68
2021/10/29 17:32:16;;;;;;;25.08;17.40;;;11.20;99.90;;;;;;5028781;28;20458;-69
2021/10/29 17:34:44;;;;;;;21.00;13.90;;;11.30;99.90;;;;;;5029025;28;20026;-69
2021/10/29 17:37:11;;;;;;;23.92;16.55;;;11.20;99.90;;;;;;5028653;28;20036;-69
2021/10/29 17:39:37;;;;;;;21.27;14.50;;;11.20;99.90;;;;;;5030383;28;20057;-68
2021/10/29 17:42:04;;;;;;;20.60;14.05;;;11.30;99.90;;;;;;5028626;28;20070;-70
2021/10/29 17:44:33;;;;;;;20.77;13.70;;;10.90;99.90;;;;;;5030591;28;20029;-68
2021/10/29 17:47:06;;;;;;;21.05;14.35;;;10.80;99.90;;;;;;5030561;28;20026;-68
2021/10/29 17:49:32;;;;;;;32.75;14.82;;;11.10;99.90;;;;;;5031052;28;20041;-69